Weather at Calgary/South Health Campus Hospital Helipad

Public forecast

Using degrees Celsius for public forecast. Weather courtesy of forecast.io.

Closest aviation weather report (METAR) to Calgary/South Health Campus Hospital Helipad

Closest report is Calgary International Airport, 14.1 nm (26.1 km) N. Retrieved 2020/10/20 16:00 UTC (47 minutes ago):

CYYC 201600Z 25004KT 40SM BKN110 M02/M06 A3002 RMK AC6 SLP219

Closest aviation forecast (TAF) to Calgary/South Health Campus Hospital Helipad

Closest forecast is Calgary International Airport, 14.1 nm (26.1 km) N. Retrieved 2020/10/20 15:39 UTC (1 hour ago):

TAF CYYC 201438Z 2015/2112 26006KT P6SM FEW050 BKN100 TEMPO 2015/2017 5SM -SN BKN040 BKN100 FM201700 22010KT P6SM SCT090 TEMPO 2017/2019 BKN080 BECMG 2019/2021 18010KT FM210200 22008KT P6SM BKN060 TEMPO 2102/2109 SCT060 BECMG 2104/2106 30010KT FM210900 35012KT P6SM SCT020 BKN050 BKN090 TEMPO 2109/2112 2SM -SHSN VV012 RMK NXT FCST BY 201800Z